createdAt,value
2023-03-24T00:00:21.666Z,13.00
2023-03-24T00:05:24.415Z,15.90
2023-03-24T00:10:30.516Z,18.63
2023-03-24T00:15:34.022Z,16.00
2023-03-24T00:20:36.639Z,18.07
2023-03-24T00:25:40.266Z,15.60
2023-03-24T00:30:43.106Z,14.73
2023-03-24T00:35:45.875Z,30.17
2023-03-24T00:40:48.915Z,17.23
2023-03-24T00:45:57.666Z,14.10
2023-03-24T00:51:05.362Z,15.10
2023-03-24T00:56:09.197Z,15.60
2023-03-24T01:01:11.780Z,15.03
2023-03-24T01:06:14.361Z,16.03
2023-03-24T01:11:18.005Z,12.63
2023-03-24T01:16:25.810Z,12.87
2023-03-24T01:21:28.580Z,12.00
2023-03-24T01:26:31.272Z,12.53
2023-03-24T01:31:33.950Z,11.43
2023-03-24T01:36:36.462Z,11.77
2023-03-24T01:41:41.243Z,14.63
2023-03-24T01:46:45.226Z,14.40
2023-03-24T01:51:53.349Z,14.00
2023-03-24T01:57:03.871Z,12.40
2023-03-24T02:02:09.911Z,14.33
2023-03-24T02:07:46.177Z,10.70
2023-03-24T02:12:48.865Z,8.83
2023-03-24T02:18:33.240Z,10.73
2023-03-24T02:23:55.758Z,9.53
2023-03-24T02:29:33.028Z,11.27
2023-03-24T02:34:36.131Z,9.20
2023-03-24T02:39:50.600Z,7.40
2023-03-24T02:45:21.443Z,7.63
2023-03-24T02:50:29.790Z,12.17
2023-03-24T02:55:39.637Z,10.67
2023-03-24T03:00:47.718Z,9.80
2023-03-24T03:06:25.935Z,12.50
2023-03-24T03:11:28.596Z,6.83
2023-03-24T03:16:38.698Z,7.13
2023-03-24T03:21:44.234Z,6.83
2023-03-24T03:26:49.158Z,4.57
2023-03-24T03:32:07.754Z,4.60
2023-03-24T03:37:31.840Z,13.33
2023-03-24T03:42:34.520Z,7.33
2023-03-24T03:47:37.487Z,5.53
2023-03-24T03:52:41.731Z,4.80
2023-03-24T03:57:44.887Z,12.87
2023-03-24T04:03:37.261Z,9.50
2023-03-24T04:08:56.866Z,5.80
2023-03-24T04:14:30.425Z,12.67
2023-03-24T04:20:12.822Z,11.23
2023-03-24T04:25:29.394Z,7.60
2023-03-24T04:30:50.400Z,5.90
2023-03-24T04:36:18.605Z,7.73
2023-03-24T04:41:45.640Z,9.70
2023-03-24T04:46:58.223Z,8.83
2023-03-24T04:52:00.988Z,5.03
2023-03-24T04:57:07.918Z,6.73
2023-03-24T05:02:16.722Z,8.87
2023-03-24T05:07:31.830Z,7.23
2023-03-24T05:12:37.678Z,10.77
2023-03-24T05:18:15.656Z,9.33
2023-03-24T05:23:18.326Z,12.40
2023-03-24T05:28:22.772Z,8.27
2023-03-24T05:33:27.471Z,9.43
2023-03-24T05:38:31.017Z,9.37
2023-03-24T05:43:34.077Z,12.00
2023-03-24T05:48:47.001Z,7.87
2023-03-24T05:53:54.883Z,9.73
2023-03-24T05:59:07.137Z,10.00
2023-03-24T06:04:31.361Z,9.57
2023-03-24T06:09:42.676Z,8.47
2023-03-24T06:14:48.456Z,9.07
2023-03-24T06:19:51.903Z,9.40
2023-03-24T06:25:28.824Z,9.90
2023-03-24T06:30:46.981Z,12.20
2023-03-24T06:35:55.194Z,7.77
2023-03-24T06:41:01.758Z,6.93
2023-03-24T06:46:06.212Z,4.43
2023-03-24T06:51:10.090Z,6.80
2023-03-24T06:56:17.389Z,11.80
2023-03-24T07:01:25.399Z,8.80
2023-03-24T07:06:29.780Z,4.80
2023-03-24T07:11:38.785Z,5.70
2023-03-24T07:16:41.879Z,4.83
2023-03-24T07:22:10.535Z,4.90
2023-03-24T07:27:41.692Z,3.93
2023-03-24T07:32:45.665Z,5.03
2023-03-24T07:37:49.414Z,3.10
2023-03-24T07:42:52.912Z,4.87
2023-03-24T07:48:17.597Z,2.97
2023-03-24T07:53:20.346Z,6.43
2023-03-24T07:58:23.582Z,9.80
2023-03-24T08:03:49.349Z,5.63
2023-03-24T08:08:52.078Z,4.87
2023-03-24T08:13:54.673Z,4.67
2023-03-24T08:19:00.231Z,3.40
2023-03-24T08:24:02.813Z,5.50
2023-03-24T08:40:23.259Z,6.53
2023-03-24T08:45:28.635Z,5.00
2023-03-24T08:50:36.210Z,5.60
2023-03-24T08:55:41.833Z,7.27
2023-03-24T09:00:45.753Z,5.63
2023-03-24T09:05:48.974Z,4.83
2023-03-24T09:10:51.818Z,5.17
2023-03-24T09:15:58.641Z,3.13
2023-03-24T09:21:01.931Z,6.57
2023-03-24T09:26:05.578Z,7.73
2023-03-24T09:31:08.220Z,3.23
2023-03-24T09:36:11.701Z,4.77
2023-03-24T09:41:28.268Z,5.37
2023-03-24T09:46:47.249Z,5.93
2023-03-24T09:51:53.299Z,5.30
2023-03-24T09:56:57.649Z,2.93
2023-03-24T10:02:00.455Z,9.13
2023-03-24T10:07:39.812Z,3.77
2023-03-24T10:12:51.952Z,6.87
2023-03-24T10:18:13.829Z,4.03
2023-03-24T10:23:25.388Z,3.33
2023-03-24T10:28:38.924Z,4.83
2023-03-24T10:33:46.072Z,2.97
2023-03-24T10:38:49.151Z,3.37
2023-03-24T10:43:54.610Z,4.20
2023-03-24T10:49:19.888Z,4.70
2023-03-24T10:54:27.062Z,4.90
2023-03-24T10:59:47.442Z,7.80
2023-03-24T11:05:13.034Z,7.20
2023-03-24T11:10:25.149Z,5.47
2023-03-24T11:15:55.612Z,5.40
2023-03-24T11:21:06.977Z,3.03
2023-03-24T11:26:24.077Z,3.23
2023-03-24T11:31:38.399Z,3.53
2023-03-24T11:37:05.332Z,4.13
2023-03-24T11:42:14.588Z,6.63
2023-03-24T11:47:21.485Z,5.70
2023-03-24T11:52:28.843Z,5.87
2023-03-24T11:57:58.642Z,6.17
2023-03-24T12:03:07.426Z,3.67
2023-03-24T12:08:38.866Z,7.33
2023-03-24T12:13:46.079Z,6.20
2023-03-24T12:19:07.201Z,1.77
2023-03-24T12:24:31.974Z,3.43
2023-03-24T12:30:02.317Z,5.73
2023-03-24T12:35:11.482Z,4.73
2023-03-24T12:40:38.874Z,3.83
2023-03-24T12:45:45.507Z,3.77
2023-03-24T12:50:51.017Z,2.87
2023-03-24T12:56:14.255Z,2.23
2023-03-24T13:01:37.444Z,3.33
2023-03-24T13:06:58.676Z,3.43
2023-03-24T13:12:03.363Z,4.70
2023-03-24T13:17:13.392Z,3.90
2023-03-24T13:22:20.947Z,2.27
2023-03-24T13:27:33.991Z,2.10
2023-03-24T13:32:50.530Z,1.57
2023-03-24T13:38:11.153Z,4.57
2023-03-24T13:43:20.495Z,1.33
2023-03-24T13:48:29.090Z,1.30
2023-03-24T13:53:40.001Z,1.67
2023-03-24T13:59:10.631Z,0.50
2023-03-24T14:04:19.098Z,3.00
2023-03-24T14:09:26.058Z,1.40
2023-03-24T14:14:29.527Z,1.90
2023-03-24T14:19:53.329Z,0.73
2023-03-24T14:25:01.541Z,1.13
2023-03-24T14:30:28.439Z,1.47
2023-03-24T14:35:32.262Z,2.47
2023-03-24T14:40:38.867Z,2.67
2023-03-24T14:45:53.761Z,4.40
2023-03-24T14:51:02.042Z,3.00
2023-03-24T14:56:13.055Z,5.50
2023-03-24T15:01:17.392Z,5.00
2023-03-24T15:06:23.420Z,6.40
2023-03-24T15:11:31.539Z,3.67
2023-03-24T15:16:36.706Z,3.50
2023-03-24T15:21:47.903Z,6.20
2023-03-24T15:26:54.033Z,4.47
2023-03-24T15:31:56.517Z,3.13
2023-03-24T15:37:03.959Z,2.60
2023-03-24T15:42:17.269Z,3.63
2023-03-24T15:47:37.721Z,1.73
2023-03-24T15:52:40.214Z,2.90
2023-03-24T15:57:42.750Z,2.00
2023-03-24T16:02:52.327Z,3.60
2023-03-24T16:07:59.626Z,1.60
2023-03-24T16:13:19.585Z,0.90
2023-03-24T16:18:27.074Z,4.83
2023-03-24T16:23:31.329Z,5.37
2023-03-24T16:28:34.395Z,3.63
2023-03-24T16:33:37.007Z,4.13
2023-03-24T16:38:39.786Z,5.80
2023-03-24T16:43:43.319Z,4.63
2023-03-24T16:48:45.946Z,2.70
2023-03-24T16:53:49.685Z,2.40
2023-03-24T16:58:53.466Z,2.60
2023-03-24T17:04:12.555Z,3.43
2023-03-24T17:09:15.480Z,2.77
2023-03-24T17:14:18.073Z,3.37
2023-03-24T17:19:22.818Z,3.57
2023-03-24T17:24:25.679Z,2.43
2023-03-24T17:29:28.244Z,3.23
2023-03-24T17:34:30.803Z,1.93
2023-03-24T17:39:33.407Z,3.60
2023-03-24T17:44:36.146Z,3.17
2023-03-24T17:49:38.603Z,2.97
2023-03-24T17:54:41.332Z,3.20
2023-03-24T17:59:44.238Z,4.60
2023-03-24T18:04:47.431Z,4.60
2023-03-24T18:09:51.317Z,4.83
2023-03-24T18:14:54.239Z,9.00
2023-03-24T18:19:58.332Z,15.30
2023-03-24T18:25:04.033Z,18.70
2023-03-24T18:30:09.621Z,19.07
2023-03-24T18:35:16.329Z,7.63
2023-03-24T18:40:19.259Z,6.10
2023-03-24T18:45:21.805Z,5.93
2023-03-24T18:50:24.276Z,4.83
2023-03-24T18:55:26.948Z,3.80
2023-03-24T19:00:29.638Z,6.17
2023-03-24T19:05:33.382Z,6.87
2023-03-24T19:10:37.116Z,6.30
2023-03-24T19:15:40.467Z,3.10
2023-03-24T19:20:42.985Z,3.37
2023-03-24T19:25:46.310Z,6.63
2023-03-24T19:30:49.040Z,9.70
2023-03-24T19:35:52.300Z,15.43
2023-03-24T19:40:55.742Z,14.87
2023-03-24T19:45:58.582Z,12.87
2023-03-24T19:51:01.537Z,13.37
2023-03-24T19:56:04.620Z,14.93
2023-03-24T20:01:07.222Z,18.13
2023-03-24T20:06:10.178Z,17.17
2023-03-24T20:11:12.854Z,11.27
2023-03-24T20:16:15.565Z,19.20
2023-03-24T20:21:22.693Z,30.33
2023-03-24T20:26:25.352Z,13.27
2023-03-24T20:31:28.917Z,14.20
2023-03-24T20:36:32.391Z,20.00
2023-03-24T20:41:35.008Z,25.23
2023-03-24T20:46:37.624Z,20.83
2023-03-24T20:51:40.804Z,16.83
2023-03-24T20:56:43.427Z,10.93
2023-03-24T21:01:48.544Z,14.10
2023-03-24T21:06:51.040Z,6.50
2023-03-24T21:11:54.215Z,13.87
2023-03-24T21:16:56.842Z,12.20
2023-03-24T21:21:59.510Z,9.00
2023-03-24T21:27:02.325Z,13.90
2023-03-24T21:32:04.965Z,8.77
2023-03-24T21:37:09.658Z,15.17
2023-03-24T21:42:15.463Z,12.23
2023-03-24T21:47:18.584Z,7.67
2023-03-24T21:52:21.112Z,6.50
2023-03-24T21:57:24.876Z,9.97
2023-03-24T22:02:27.975Z,8.37
2023-03-24T22:07:37.679Z,15.20
2023-03-24T22:12:41.729Z,11.20
2023-03-24T22:17:44.550Z,9.00
2023-03-24T22:22:47.463Z,8.97
2023-03-24T22:27:52.607Z,12.63
2023-03-24T22:32:55.513Z,9.70
2023-03-24T22:37:58.008Z,9.33
2023-03-24T22:43:00.505Z,10.47
2023-03-24T22:48:03.141Z,13.47
2023-03-24T22:53:05.856Z,11.27
2023-03-24T22:58:08.628Z,6.50
2023-03-24T23:03:12.106Z,12.25
2023-03-24T23:08:16.072Z,12.27
2023-03-24T23:13:18.647Z,11.47
2023-03-24T23:18:21.197Z,9.83
2023-03-24T23:23:23.738Z,13.60
2023-03-24T23:28:26.240Z,12.90
2023-03-24T23:33:29.087Z,11.37
2023-03-24T23:38:33.640Z,15.37
2023-03-24T23:43:36.640Z,8.33
2023-03-24T23:48:39.196Z,10.27
2023-03-24T23:53:41.855Z,11.93
2023-03-24T23:58:44.421Z,7.73
